createdAt,value
2022-12-08T00:00:13.548Z,2.69
2022-12-08T00:02:44.441Z,2.65
2022-12-08T00:05:34.071Z,2.62
2022-12-08T00:08:21.523Z,2.63
2022-12-08T00:10:50.524Z,2.61
2022-12-08T00:13:19.489Z,2.68
2022-12-08T00:15:47.624Z,2.60
2022-12-08T00:18:18.531Z,2.54
2022-12-08T00:20:47.332Z,2.57
2022-12-08T00:23:17.002Z,2.59
2022-12-08T00:25:45.209Z,2.58
2022-12-08T00:28:13.854Z,2.55
2022-12-08T00:30:43.396Z,2.59
2022-12-08T00:33:13.371Z,2.56
2022-12-08T00:35:43.341Z,2.56
2022-12-08T00:38:12.374Z,2.52
2022-12-08T00:40:48.956Z,2.49
2022-12-08T00:43:18.023Z,2.53
2022-12-08T00:45:46.567Z,2.53
2022-12-08T00:48:15.215Z,2.53
2022-12-08T00:50:43.903Z,2.49
2022-12-08T00:53:13.007Z,2.48
2022-12-08T00:55:41.359Z,2.45
2022-12-08T00:58:11.192Z,2.46
2022-12-08T01:00:41.963Z,2.42
2022-12-08T01:03:11.624Z,2.42
2022-12-08T01:05:40.870Z,2.40
2022-12-08T01:08:22.211Z,2.40
2022-12-08T01:10:55.133Z,2.38
2022-12-08T01:13:28.507Z,2.41
2022-12-08T01:15:57.590Z,2.39
2022-12-08T01:18:29.687Z,2.39
2022-12-08T01:21:05.440Z,2.34
2022-12-08T01:23:34.589Z,2.28
2022-12-08T01:26:04.400Z,2.27
2022-12-08T01:28:34.487Z,2.34
2022-12-08T01:31:07.839Z,2.34
2022-12-08T01:33:36.245Z,2.32
2022-12-08T01:36:05.469Z,2.31
2022-12-08T01:38:35.634Z,2.29
2022-12-08T01:41:06.897Z,2.29
2022-12-08T01:43:55.821Z,2.24
2022-12-08T01:46:27.352Z,2.18
2022-12-08T01:49:01.425Z,2.23
2022-12-08T01:51:34.116Z,2.19
2022-12-08T01:54:05.517Z,2.20
2022-12-08T01:56:38.848Z,2.10
2022-12-08T01:59:09.280Z,2.15
2022-12-08T02:01:37.714Z,2.18
2022-12-08T02:04:06.706Z,2.09
2022-12-08T02:06:39.811Z,2.06
2022-12-08T02:09:09.288Z,2.12
2022-12-08T02:11:37.582Z,2.10
2022-12-08T02:14:11.306Z,2.05
2022-12-08T02:16:49.733Z,2.03
2022-12-08T02:20:00.410Z,2.02
2022-12-08T02:22:37.378Z,2.08
2022-12-08T02:25:16.533Z,2.03
2022-12-08T02:27:59.945Z,2.13
2022-12-08T02:30:39.398Z,2.13
2022-12-08T02:33:32.768Z,2.07
2022-12-08T02:36:08.792Z,1.97
2022-12-08T02:38:46.821Z,2.07
2022-12-08T02:41:25.801Z,2.01
2022-12-08T02:43:59.915Z,1.94
2022-12-08T02:46:33.241Z,1.97
2022-12-08T02:49:02.242Z,1.97
2022-12-08T02:51:31.804Z,1.96
2022-12-08T02:54:01.305Z,1.98
2022-12-08T02:56:39.063Z,1.96
2022-12-08T02:59:24.622Z,1.96
2022-12-08T03:02:12.159Z,1.91
2022-12-08T03:04:47.840Z,1.88
2022-12-08T03:07:25.319Z,1.92
2022-12-08T03:10:01.374Z,1.90
2022-12-08T03:12:35.308Z,1.85
2022-12-08T03:15:08.782Z,1.83
2022-12-08T03:17:42.377Z,1.96
2022-12-08T03:20:15.074Z,1.89
2022-12-08T03:22:48.065Z,1.79
2022-12-08T03:25:18.370Z,1.74
2022-12-08T03:27:46.865Z,1.71
2022-12-08T03:30:15.557Z,1.69
2022-12-08T03:32:48.626Z,1.76
2022-12-08T03:35:22.664Z,1.75
2022-12-08T03:37:52.282Z,1.77
2022-12-08T03:40:24.115Z,1.82
2022-12-08T03:42:52.283Z,1.64
2022-12-08T03:45:22.204Z,1.68
2022-12-08T03:47:51.268Z,1.65
2022-12-08T03:50:21.677Z,1.66
2022-12-08T03:52:50.327Z,1.68
2022-12-08T03:55:21.440Z,1.62
2022-12-08T03:57:52.870Z,1.66
2022-12-08T04:00:21.709Z,1.67
2022-12-08T04:02:50.378Z,1.69
2022-12-08T04:05:18.622Z,1.65
2022-12-08T04:07:47.078Z,1.78
2022-12-08T04:10:15.169Z,1.82
2022-12-08T04:12:44.883Z,1.75
2022-12-08T04:15:12.893Z,1.77
2022-12-08T04:17:40.904Z,1.76
2022-12-08T04:20:09.900Z,1.77
2022-12-08T04:22:38.193Z,1.72
2022-12-08T04:25:07.854Z,1.65
2022-12-08T04:27:37.464Z,1.75
2022-12-08T04:30:11.323Z,1.83
2022-12-08T04:32:44.231Z,1.72
2022-12-08T04:35:15.892Z,1.70
2022-12-08T04:37:44.960Z,1.67
2022-12-08T04:40:15.666Z,1.69
2022-12-08T04:42:48.724Z,1.58
2022-12-08T04:45:18.697Z,1.71
2022-12-08T04:47:47.451Z,1.61
2022-12-08T04:50:17.049Z,1.64
2022-12-08T04:52:45.526Z,1.59
2022-12-08T04:55:21.613Z,1.62
2022-12-08T04:57:50.797Z,1.58
2022-12-08T05:00:20.902Z,1.60
2022-12-08T05:02:50.203Z,1.57
2022-12-08T05:05:18.594Z,1.50
2022-12-08T05:07:47.807Z,1.52
2022-12-08T05:10:16.413Z,1.55
2022-12-08T05:12:46.009Z,1.52
2022-12-08T05:15:14.850Z,1.52
2022-12-08T05:17:44.323Z,1.56
2022-12-08T05:20:13.825Z,1.58
2022-12-08T05:22:42.342Z,1.57
2022-12-08T05:25:11.224Z,1.53
2022-12-08T05:27:40.314Z,1.62
2022-12-08T05:30:09.410Z,1.65
2022-12-08T05:32:38.035Z,1.57
2022-12-08T05:35:09.506Z,1.66
2022-12-08T05:37:38.932Z,1.55
2022-12-08T05:40:09.089Z,1.54
2022-12-08T05:42:39.840Z,1.60
2022-12-08T05:45:10.180Z,1.57
2022-12-08T05:47:38.708Z,1.59
2022-12-08T05:50:10.085Z,1.56
2022-12-08T05:52:38.542Z,1.53
2022-12-08T05:55:08.026Z,1.53
2022-12-08T05:57:36.755Z,1.56
2022-12-08T06:00:08.332Z,1.53
2022-12-08T06:02:47.885Z,1.51
2022-12-08T06:05:18.152Z,1.50
2022-12-08T06:07:46.396Z,1.56
2022-12-08T06:10:17.113Z,1.61
2022-12-08T06:12:45.333Z,1.48
2022-12-08T06:15:13.647Z,1.52
2022-12-08T06:17:44.124Z,1.47
2022-12-08T06:20:14.574Z,1.51
2022-12-08T06:22:44.756Z,1.49
2022-12-08T06:25:13.029Z,1.44
2022-12-08T06:27:42.940Z,1.49
2022-12-08T06:30:11.620Z,1.49
2022-12-08T06:32:40.381Z,1.46
2022-12-08T06:35:10.864Z,1.46
2022-12-08T06:37:39.220Z,1.46
2022-12-08T06:40:11.047Z,1.50
2022-12-08T06:42:44.738Z,1.52
2022-12-08T06:45:13.983Z,1.50
2022-12-08T06:47:42.737Z,1.53
2022-12-08T06:50:12.818Z,1.53
2022-12-08T06:52:51.717Z,1.53
2022-12-08T06:55:50.817Z,1.51
2022-12-08T06:58:11.800Z,1.52
2022-12-08T07:00:40.831Z,1.55
2022-12-08T07:03:10.359Z,1.57
2022-12-08T07:05:39.069Z,1.63
2022-12-08T07:08:09.903Z,1.55
2022-12-08T07:10:41.931Z,1.59
2022-12-08T07:13:10.149Z,1.65
2022-12-08T07:15:38.337Z,1.58
2022-12-08T07:18:06.575Z,1.63
2022-12-08T07:20:35.122Z,1.60
2022-12-08T07:23:03.638Z,1.67
2022-12-08T07:25:33.430Z,1.69
2022-12-08T07:28:09.618Z,1.63
2022-12-08T07:30:38.418Z,1.66
2022-12-08T07:33:08.356Z,1.61
2022-12-08T07:35:36.697Z,1.62
2022-12-08T07:38:05.453Z,1.61
2022-12-08T07:40:33.732Z,1.77
2022-12-08T07:43:03.616Z,1.68
2022-12-08T07:45:32.095Z,1.66
2022-12-08T07:48:00.536Z,1.65
2022-12-08T07:50:29.150Z,1.71
2022-12-08T07:52:57.352Z,1.76
2022-12-08T07:55:26.399Z,1.78
2022-12-08T07:57:54.546Z,1.77
2022-12-08T08:00:24.679Z,1.81
2022-12-08T08:02:53.282Z,1.79
2022-12-08T08:05:21.790Z,1.87
2022-12-08T08:07:50.196Z,2.01
2022-12-08T08:10:19.068Z,2.04
2022-12-08T08:12:47.684Z,2.02
2022-12-08T08:15:17.399Z,2.04
2022-12-08T08:17:50.045Z,2.06
2022-12-08T08:20:19.064Z,2.19
2022-12-08T08:22:48.271Z,2.19
2022-12-08T08:25:19.909Z,2.12
2022-12-08T08:27:48.389Z,2.22
2022-12-08T08:30:20.657Z,2.24
2022-12-08T08:32:52.325Z,2.19
2022-12-08T08:35:22.099Z,2.28
2022-12-08T08:37:50.360Z,2.29
2022-12-08T08:40:18.911Z,2.36
2022-12-08T08:42:47.818Z,2.43
2022-12-08T08:45:16.333Z,2.51
2022-12-08T08:47:47.438Z,2.57
2022-12-08T08:50:17.558Z,2.49
2022-12-08T08:52:45.892Z,2.61
2022-12-08T08:55:14.407Z,2.67
2022-12-08T08:57:42.899Z,2.71
2022-12-08T09:00:13.093Z,2.61
2022-12-08T09:02:41.696Z,2.53
2022-12-08T09:05:10.602Z,2.55
2022-12-08T09:07:41.425Z,2.62
2022-12-08T09:10:11.283Z,2.70
2022-12-08T09:12:39.692Z,2.65
2022-12-08T09:15:11.217Z,2.71
2022-12-08T09:17:39.424Z,2.88
2022-12-08T09:20:09.886Z,2.86
2022-12-08T09:22:38.453Z,2.77
2022-12-08T09:25:10.608Z,2.82
2022-12-08T09:27:38.754Z,3.00
2022-12-08T09:30:08.797Z,3.03
2022-12-08T09:32:39.475Z,3.09
2022-12-08T09:35:10.217Z,3.18
2022-12-08T09:37:38.751Z,2.94
2022-12-08T09:40:12.814Z,3.00
2022-12-08T09:42:48.994Z,3.21
2022-12-08T09:45:19.273Z,3.25
2022-12-08T09:47:59.051Z,3.35
2022-12-08T09:50:33.772Z,3.42
2022-12-08T09:53:10.584Z,3.33
2022-12-08T09:55:46.159Z,3.36
2022-12-08T09:58:22.809Z,3.50
2022-12-08T10:00:51.208Z,3.43
2022-12-08T10:03:20.615Z,3.52
2022-12-08T10:05:58.646Z,3.56
2022-12-08T10:08:33.042Z,3.65
2022-12-08T10:11:11.340Z,3.72
2022-12-08T10:13:47.974Z,3.76
2022-12-08T10:16:29.737Z,3.99
2022-12-08T10:19:09.681Z,3.94
2022-12-08T10:21:41.654Z,4.04
2022-12-08T10:24:17.147Z,3.98
2022-12-08T10:26:48.094Z,4.08
2022-12-08T10:29:17.382Z,3.96
2022-12-08T10:31:46.284Z,4.15
2022-12-08T10:34:19.984Z,4.10
2022-12-08T10:36:51.756Z,4.42
2022-12-08T10:39:37.208Z,4.21
2022-12-08T10:42:19.097Z,4.35
2022-12-08T10:44:55.515Z,4.47
2022-12-08T10:47:27.433Z,4.42
2022-12-08T10:50:22.510Z,4.38
2022-12-08T10:52:56.773Z,4.43
2022-12-08T10:55:25.065Z,4.40
2022-12-08T10:57:56.084Z,4.43
2022-12-08T11:00:26.329Z,4.60
2022-12-08T11:03:01.813Z,4.53
2022-12-08T11:05:35.405Z,4.72
2022-12-08T11:08:06.394Z,4.56
2022-12-08T11:10:38.028Z,4.79
2022-12-08T11:13:18.165Z,4.84
2022-12-08T11:15:48.948Z,4.76
2022-12-08T11:18:24.525Z,4.63
2022-12-08T11:21:03.116Z,4.60
2022-12-08T11:23:31.811Z,4.70
2022-12-08T11:26:07.253Z,4.63
2022-12-08T11:28:37.489Z,4.79
2022-12-08T11:31:13.564Z,4.70
2022-12-08T11:33:44.478Z,4.68
2022-12-08T11:36:16.214Z,4.63
2022-12-08T11:38:48.433Z,4.56
2022-12-08T11:41:19.933Z,4.91
2022-12-08T11:43:57.400Z,4.72
2022-12-08T11:46:33.823Z,4.65
2022-12-08T11:49:06.612Z,4.72
2022-12-08T11:51:38.394Z,5.04
2022-12-08T11:54:17.647Z,4.89
2022-12-08T11:56:52.054Z,4.98
2022-12-08T11:59:28.944Z,4.85
2022-12-08T12:01:59.374Z,4.87
2022-12-08T12:04:33.709Z,4.98
2022-12-08T12:07:31.354Z,4.99
2022-12-08T12:10:21.011Z,4.82
2022-12-08T12:13:02.149Z,4.91
2022-12-08T12:16:09.371Z,4.84
2022-12-08T12:18:46.341Z,4.92
2022-12-08T12:21:20.527Z,4.93
2022-12-08T12:23:54.705Z,4.97
2022-12-08T12:26:27.710Z,4.98
2022-12-08T12:29:02.012Z,4.82
2022-12-08T12:31:34.936Z,4.72
2022-12-08T12:34:13.223Z,4.85
2022-12-08T12:36:53.391Z,4.85
2022-12-08T12:39:26.610Z,4.78
2022-12-08T12:41:56.863Z,4.86
2022-12-08T12:44:42.985Z,5.02
2022-12-08T12:47:16.242Z,4.81
2022-12-08T12:50:08.244Z,4.72
2022-12-08T12:52:47.834Z,4.69
2022-12-08T12:55:31.630Z,5.01
2022-12-08T12:58:03.169Z,5.11
2022-12-08T13:00:31.858Z,5.03
2022-12-08T13:03:00.526Z,4.84
2022-12-08T13:05:32.772Z,4.85
2022-12-08T13:08:04.513Z,4.69
2022-12-08T13:10:35.790Z,4.64
2022-12-08T13:13:18.964Z,4.78
2022-12-08T13:15:53.383Z,4.84
2022-12-08T13:18:26.144Z,5.02
2022-12-08T13:21:04.773Z,4.58
2022-12-08T13:23:48.037Z,4.64
2022-12-08T13:26:23.568Z,4.63
2022-12-08T13:29:19.854Z,4.61
2022-12-08T13:31:52.145Z,4.63
2022-12-08T13:34:24.431Z,4.65
2022-12-08T13:37:20.383Z,4.73
2022-12-08T13:40:10.429Z,4.70
2022-12-08T13:42:49.124Z,4.62
2022-12-08T13:45:52.922Z,4.69
2022-12-08T13:48:44.641Z,4.81
2022-12-08T13:55:00.706Z,4.64
2022-12-08T13:57:08.493Z,4.56
2022-12-08T13:59:48.127Z,4.46
2022-12-08T14:02:26.811Z,4.47
2022-12-08T14:07:46.162Z,4.46
2022-12-08T14:10:21.237Z,4.24
2022-12-08T14:12:59.387Z,4.26
2022-12-08T14:15:34.040Z,4.27
2022-12-08T14:18:22.478Z,4.32
2022-12-08T14:21:20.367Z,4.27
2022-12-08T14:23:49.461Z,4.08
2022-12-08T14:26:21.870Z,4.06
2022-12-08T14:28:51.426Z,4.06
2022-12-08T14:31:20.120Z,4.04
2022-12-08T14:33:54.788Z,3.94
2022-12-08T14:36:25.928Z,3.86
2022-12-08T14:38:57.253Z,4.01
2022-12-08T14:41:34.373Z,3.90
2022-12-08T14:44:03.169Z,3.89
2022-12-08T14:46:32.972Z,3.72
2022-12-08T14:49:01.849Z,3.71
2022-12-08T14:51:32.691Z,3.68
2022-12-08T14:54:03.951Z,3.63
2022-12-08T14:56:39.261Z,3.45
2022-12-08T14:59:13.869Z,3.41
2022-12-08T15:01:43.771Z,3.37
2022-12-08T15:04:21.253Z,3.32
2022-12-08T15:06:54.440Z,3.19
2022-12-08T15:09:32.166Z,3.11
2022-12-08T15:12:07.168Z,3.04
2022-12-08T15:14:37.431Z,2.93
2022-12-08T15:17:31.868Z,2.83
2022-12-08T15:20:02.117Z,2.74
2022-12-08T15:22:36.849Z,2.65
2022-12-08T15:25:07.460Z,2.62
2022-12-08T15:27:49.569Z,2.55
2022-12-08T15:30:20.566Z,2.43
2022-12-08T15:32:54.834Z,2.39
2022-12-08T15:35:23.813Z,2.40
2022-12-08T15:37:52.075Z,2.38
2022-12-08T15:40:22.979Z,2.31
2022-12-08T15:43:00.036Z,2.31
2022-12-08T15:45:33.032Z,2.24
2022-12-08T15:48:01.994Z,2.33
2022-12-08T15:50:30.310Z,2.28
2022-12-08T15:52:58.459Z,2.29
2022-12-08T15:55:26.736Z,2.28
2022-12-08T16:00:54.228Z,2.32
2022-12-08T16:09:13.200Z,2.40
2022-12-08T16:12:09.886Z,2.43
2022-12-08T16:17:31.768Z,2.46
2022-12-08T16:20:02.712Z,2.48
2022-12-08T16:25:23.349Z,2.54
2022-12-08T16:28:17.313Z,2.52
2022-12-08T16:30:44.042Z,2.54
2022-12-08T16:33:16.166Z,2.55
2022-12-08T16:35:45.567Z,2.54
2022-12-08T16:38:16.701Z,2.53
2022-12-08T16:41:04.117Z,2.61
2022-12-08T16:43:36.856Z,2.54
2022-12-08T16:46:06.593Z,2.52
2022-12-08T16:48:34.832Z,2.51
2022-12-08T16:51:04.854Z,2.52
2022-12-08T16:53:33.205Z,2.50
2022-12-08T16:56:02.810Z,2.48
2022-12-08T16:58:31.462Z,2.47
2022-12-08T17:00:59.714Z,2.52
2022-12-08T17:03:31.267Z,2.48
2022-12-08T17:05:59.446Z,2.48
2022-12-08T17:08:29.475Z,2.46
2022-12-08T17:11:08.382Z,2.48
2022-12-08T17:13:38.189Z,2.48
2022-12-08T17:16:09.535Z,2.45
2022-12-08T17:18:40.787Z,2.46
2022-12-08T17:21:13.008Z,2.43
2022-12-08T17:23:42.187Z,2.52
2022-12-08T17:26:11.304Z,2.51
2022-12-08T17:28:59.987Z,2.48
2022-12-08T17:31:31.912Z,2.44
2022-12-08T17:34:02.986Z,2.46
2022-12-08T17:36:31.274Z,2.44
2022-12-08T17:39:01.412Z,2.41
2022-12-08T17:41:30.031Z,2.42
2022-12-08T17:43:58.377Z,2.45
2022-12-08T17:46:26.706Z,2.40
2022-12-08T17:48:55.028Z,2.41
2022-12-08T17:51:25.326Z,2.38
2022-12-08T17:53:54.322Z,2.38
2022-12-08T17:56:23.136Z,2.35
2022-12-08T17:58:54.777Z,2.36
2022-12-08T18:01:24.082Z,2.36
2022-12-08T18:03:53.075Z,2.34
2022-12-08T18:06:24.651Z,2.32
2022-12-08T18:08:59.167Z,2.34
2022-12-08T18:11:29.099Z,2.35
2022-12-08T18:14:09.401Z,2.43
2022-12-08T18:16:39.297Z,2.42
2022-12-08T18:19:08.840Z,2.40
2022-12-08T18:21:37.684Z,2.37
2022-12-08T18:24:08.572Z,2.47
2022-12-08T18:26:37.479Z,2.41
2022-12-08T18:29:05.948Z,2.45
2022-12-08T18:31:34.265Z,2.38
2022-12-08T18:34:03.146Z,2.33
2022-12-08T18:36:31.372Z,2.35
2022-12-08T18:38:59.721Z,2.32
2022-12-08T18:41:29.884Z,2.34
2022-12-08T18:43:58.992Z,2.32
2022-12-08T18:46:27.602Z,2.31
2022-12-08T18:48:55.859Z,2.30
2022-12-08T18:51:25.226Z,2.30
2022-12-08T18:53:53.754Z,2.28
2022-12-08T18:56:24.590Z,2.32
2022-12-08T18:58:58.436Z,2.35
2022-12-08T19:01:30.361Z,2.33
2022-12-08T19:04:29.910Z,2.36
2022-12-08T19:06:48.139Z,2.39
2022-12-08T19:09:16.689Z,2.40
2022-12-08T19:11:45.796Z,2.36
2022-12-08T19:14:15.590Z,2.34
2022-12-08T19:16:46.086Z,2.32
2022-12-08T19:19:15.222Z,2.29
2022-12-08T19:21:46.474Z,2.28
2022-12-08T19:24:15.396Z,2.33
2022-12-08T19:26:45.668Z,2.29
2022-12-08T19:29:15.289Z,2.27
2022-12-08T19:31:45.013Z,2.27
2022-12-08T19:34:15.162Z,2.24
2022-12-08T19:36:45.114Z,2.23
2022-12-08T19:39:34.035Z,2.22
2022-12-08T19:42:20.365Z,2.19
2022-12-08T19:44:55.714Z,2.21
2022-12-08T19:47:25.541Z,2.21
2022-12-08T19:50:15.587Z,2.17
2022-12-08T19:52:44.829Z,2.18
2022-12-08T19:55:14.124Z,2.19
2022-12-08T19:57:42.596Z,2.17
2022-12-08T20:00:14.111Z,2.15
2022-12-08T20:02:42.918Z,2.11
2022-12-08T20:05:13.033Z,2.07
2022-12-08T20:07:41.876Z,2.08
2022-12-08T20:10:16.398Z,2.00
2022-12-08T20:12:45.751Z,1.89
2022-12-08T20:15:15.774Z,1.80
2022-12-08T20:17:44.500Z,1.70
2022-12-08T20:20:15.380Z,1.65
2022-12-08T20:22:46.547Z,1.60
2022-12-08T20:25:15.498Z,1.57
2022-12-08T20:27:44.010Z,1.57
2022-12-08T20:30:16.946Z,1.49
2022-12-08T20:32:47.222Z,1.40
2022-12-08T20:35:15.787Z,1.32
2022-12-08T20:37:44.233Z,1.20
2022-12-08T20:40:14.280Z,1.09
2022-12-08T20:42:42.940Z,1.02
2022-12-08T20:45:11.379Z,0.90
2022-12-08T20:47:40.219Z,0.83
2022-12-08T20:50:11.282Z,0.73
2022-12-08T20:52:40.980Z,0.66
2022-12-08T20:55:10.582Z,0.57
2022-12-08T20:57:38.925Z,0.54
2022-12-08T21:00:08.806Z,0.53
2022-12-08T21:02:43.217Z,0.48
2022-12-08T21:05:17.870Z,0.45
2022-12-08T21:07:46.281Z,0.42
2022-12-08T21:10:17.747Z,0.40
2022-12-08T21:12:46.641Z,0.38
2022-12-08T21:15:15.244Z,0.33
2022-12-08T21:17:44.024Z,0.31
2022-12-08T21:20:12.925Z,0.27
2022-12-08T21:22:42.706Z,0.23
2022-12-08T21:25:12.275Z,0.21
2022-12-08T21:27:40.645Z,0.23
2022-12-08T21:30:11.336Z,0.27
2022-12-08T21:32:41.735Z,0.30
2022-12-08T21:35:11.133Z,0.31
2022-12-08T21:37:40.068Z,0.35
2022-12-08T21:40:11.872Z,0.38
2022-12-08T21:42:46.518Z,0.42
2022-12-08T21:45:18.467Z,0.45
2022-12-08T21:47:48.413Z,0.48
2022-12-08T21:50:18.462Z,0.48
2022-12-08T21:52:50.347Z,0.47
2022-12-08T21:55:20.456Z,0.45
2022-12-08T21:57:49.252Z,0.46
2022-12-08T22:00:19.646Z,0.43
2022-12-08T22:02:47.986Z,0.46
2022-12-08T22:05:16.744Z,0.46
2022-12-08T22:07:45.288Z,0.46
2022-12-08T22:10:14.993Z,0.45
2022-12-08T22:12:45.656Z,0.46
2022-12-08T22:15:16.089Z,0.51
2022-12-08T22:17:45.242Z,0.53
2022-12-08T22:20:15.605Z,0.50
2022-12-08T22:22:45.552Z,0.50
2022-12-08T22:25:13.773Z,0.50
2022-12-08T22:27:43.704Z,0.49
2022-12-08T22:30:13.335Z,0.51
2022-12-08T22:32:41.974Z,0.51
2022-12-08T22:35:12.063Z,0.54
2022-12-08T22:37:42.253Z,0.51
2022-12-08T22:40:13.297Z,0.49
2022-12-08T22:42:41.660Z,0.53
2022-12-08T22:45:12.205Z,0.64
2022-12-08T22:47:40.794Z,0.58
2022-12-08T22:50:09.595Z,0.58
2022-12-08T22:52:38.268Z,0.56
2022-12-08T22:55:07.681Z,0.61
2022-12-08T22:57:36.212Z,0.61
2022-12-08T23:00:07.033Z,0.60
2022-12-08T23:02:38.271Z,0.69
2022-12-08T23:05:07.810Z,0.66
2022-12-08T23:07:36.682Z,0.65
2022-12-08T23:10:06.604Z,0.65
2022-12-08T23:12:35.530Z,0.63
2022-12-08T23:15:05.052Z,0.62
2022-12-08T23:17:33.257Z,0.62
2022-12-08T23:20:03.188Z,0.60
2022-12-08T23:22:31.505Z,0.58
2022-12-08T23:25:00.074Z,0.59
2022-12-08T23:27:28.597Z,0.56
2022-12-08T23:29:57.087Z,0.56
2022-12-08T23:32:26.394Z,0.53
2022-12-08T23:34:55.342Z,0.52
2022-12-08T23:37:25.035Z,0.51
2022-12-08T23:39:53.658Z,0.52
2022-12-08T23:42:22.526Z,0.53
2022-12-08T23:44:51.348Z,0.56
2022-12-08T23:47:22.102Z,0.52
2022-12-08T23:49:52.033Z,0.52
2022-12-08T23:52:20.240Z,0.48
2022-12-08T23:54:52.080Z,0.47
2022-12-08T23:57:23.117Z,0.43
2022-12-08T23:59:51.874Z,0.44
